sensor_id;sensor_type;location;lat;lon;timestamp;temperature;humidity
53643;DHT22;39546;45.534;12.048;2023-12-22T00:03:47;5.60;83.70
53643;DHT22;39546;45.534;12.048;2023-12-22T00:09:51;5.70;83.80
53643;DHT22;39546;45.534;12.048;2023-12-22T00:15:53;5.80;84.20
53643;DHT22;39546;45.534;12.048;2023-12-22T00:22:01;5.90;84.70
53643;DHT22;39546;45.534;12.048;2023-12-22T00:28:04;5.80;84.40
53643;DHT22;39546;45.534;12.048;2023-12-22T00:34:06;5.70;84.00
53643;DHT22;39546;45.534;12.048;2023-12-22T00:40:08;5.70;84.50
53643;DHT22;39546;45.534;12.048;2023-12-22T00:46:10;5.70;84.60
53643;DHT22;39546;45.534;12.048;2023-12-22T00:52:12;5.70;84.70
53643;DHT22;39546;45.534;12.048;2023-12-22T00:58:13;5.90;84.50
53643;DHT22;39546;45.534;12.048;2023-12-22T01:04:15;6.10;84.50
53643;DHT22;39546;45.534;12.048;2023-12-22T01:10:16;6.20;84.30
53643;DHT22;39546;45.534;12.048;2023-12-22T01:16:18;6.00;84.20
53643;DHT22;39546;45.534;12.048;2023-12-22T01:22:22;5.70;84.40
53643;DHT22;39546;45.534;12.048;2023-12-22T01:28:24;5.70;84.50
53643;DHT22;39546;45.534;12.048;2023-12-22T01:34:25;5.40;84.20
53643;DHT22;39546;45.534;12.048;2023-12-22T01:40:27;5.50;84.70
53643;DHT22;39546;45.534;12.048;2023-12-22T01:46:28;5.60;84.60
53643;DHT22;39546;45.534;12.048;2023-12-22T01:52:30;5.80;84.80
53643;DHT22;39546;45.534;12.048;2023-12-22T01:58:33;5.60;83.80
53643;DHT22;39546;45.534;12.048;2023-12-22T02:04:44;5.20;84.20
53643;DHT22;39546;45.534;12.048;2023-12-22T02:10:46;5.50;85.10
53643;DHT22;39546;45.534;12.048;2023-12-22T02:16:55;5.60;84.70
53643;DHT22;39546;45.534;12.048;2023-12-22T02:22:59;5.80;84.70
53643;DHT22;39546;45.534;12.048;2023-12-22T02:29:00;6.00;84.60
53643;DHT22;39546;45.534;12.048;2023-12-22T02:35:10;5.70;83.90
53643;DHT22;39546;45.534;12.048;2023-12-22T02:41:12;5.20;83.60
53643;DHT22;39546;45.534;12.048;2023-12-22T02:47:15;5.20;83.90
53643;DHT22;39546;45.534;12.048;2023-12-22T02:53:16;5.30;84.10
53643;DHT22;39546;45.534;12.048;2023-12-22T02:59:18;5.20;83.90
53643;DHT22;39546;45.534;12.048;2023-12-22T03:05:19;5.30;84.70
53643;DHT22;39546;45.534;12.048;2023-12-22T03:11:21;5.70;85.20
53643;DHT22;39546;45.534;12.048;2023-12-22T03:17:22;5.60;82.80
53643;DHT22;39546;45.534;12.048;2023-12-22T03:23:24;5.40;84.60
53643;DHT22;39546;45.534;12.048;2023-12-22T03:29:25;5.40;84.20
53643;DHT22;39546;45.534;12.048;2023-12-22T03:35:27;5.40;84.90
53643;DHT22;39546;45.534;12.048;2023-12-22T03:41:29;5.60;85.40
53643;DHT22;39546;45.534;12.048;2023-12-22T03:47:30;5.40;85.00
53643;DHT22;39546;45.534;12.048;2023-12-22T03:53:32;5.30;85.10
53643;DHT22;39546;45.534;12.048;2023-12-22T03:59:33;5.20;85.30
53643;DHT22;39546;45.534;12.048;2023-12-22T04:05:35;5.20;85.00
53643;DHT22;39546;45.534;12.048;2023-12-22T04:11:36;5.20;85.10
53643;DHT22;39546;45.534;12.048;2023-12-22T04:17:38;5.20;84.90
53643;DHT22;39546;45.534;12.048;2023-12-22T04:23:40;5.30;85.30
53643;DHT22;39546;45.534;12.048;2023-12-22T04:29:42;5.50;85.20
53643;DHT22;39546;45.534;12.048;2023-12-22T04:35:43;5.90;85.30
53643;DHT22;39546;45.534;12.048;2023-12-22T04:41:45;6.00;84.80
53643;DHT22;39546;45.534;12.048;2023-12-22T04:47:46;6.10;85.20
53643;DHT22;39546;45.534;12.048;2023-12-22T04:53:47;6.10;85.60
53643;DHT22;39546;45.534;12.048;2023-12-22T04:59:49;6.30;85.20
53643;DHT22;39546;45.534;12.048;2023-12-22T05:05:51;6.20;84.60
53643;DHT22;39546;45.534;12.048;2023-12-22T05:11:52;6.10;84.40
53643;DHT22;39546;45.534;12.048;2023-12-22T05:17:54;6.00;84.60
53643;DHT22;39546;45.534;12.048;2023-12-22T05:23:56;5.90;84.90
53643;DHT22;39546;45.534;12.048;2023-12-22T05:29:57;5.50;80.70
53643;DHT22;39546;45.534;12.048;2023-12-22T05:36:03;5.40;84.60
53643;DHT22;39546;45.534;12.048;2023-12-22T05:42:05;5.70;83.30
53643;DHT22;39546;45.534;12.048;2023-12-22T05:48:06;5.70;84.40
53643;DHT22;39546;45.534;12.048;2023-12-22T05:54:09;6.00;84.40
53643;DHT22;39546;45.534;12.048;2023-12-22T06:00:12;5.60;81.10
53643;DHT22;39546;45.534;12.048;2023-12-22T06:06:17;5.00;82.20
53643;DHT22;39546;45.534;12.048;2023-12-22T06:12:25;4.50;81.10
53643;DHT22;39546;45.534;12.048;2023-12-22T06:18:27;4.20;82.60
53643;DHT22;39546;45.534;12.048;2023-12-22T06:24:28;4.10;81.90
53643;DHT22;39546;45.534;12.048;2023-12-22T06:30:30;3.90;83.40
53643;DHT22;39546;45.534;12.048;2023-12-22T06:36:34;4.10;84.20
53643;DHT22;39546;45.534;12.048;2023-12-22T06:42:35;4.70;84.50
53643;DHT22;39546;45.534;12.048;2023-12-22T06:48:37;5.60;85.00
53643;DHT22;39546;45.534;12.048;2023-12-22T06:54:38;5.90;84.70
53643;DHT22;39546;45.534;12.048;2023-12-22T07:00:41;6.20;85.80
53643;DHT22;39546;45.534;12.048;2023-12-22T07:07:30;6.20;83.80
53643;DHT22;39546;45.534;12.048;2023-12-22T07:13:32;5.40;79.80
53643;DHT22;39546;45.534;12.048;2023-12-22T07:19:34;4.60;83.70
53643;DHT22;39546;45.534;12.048;2023-12-22T07:25:39;4.80;84.50
53643;DHT22;39546;45.534;12.048;2023-12-22T07:31:41;5.00;84.70
53643;DHT22;39546;45.534;12.048;2023-12-22T07:37:42;5.20;84.30
53643;DHT22;39546;45.534;12.048;2023-12-22T07:43:44;5.60;85.10
53643;DHT22;39546;45.534;12.048;2023-12-22T07:49:46;5.90;84.40
53643;DHT22;39546;45.534;12.048;2023-12-22T07:55:51;6.20;84.10
53643;DHT22;39546;45.534;12.048;2023-12-22T08:01:54;6.70;84.20
53643;DHT22;39546;45.534;12.048;2023-12-22T08:07:56;6.90;83.50
53643;DHT22;39546;45.534;12.048;2023-12-22T08:13:58;6.40;83.50
53643;DHT22;39546;45.534;12.048;2023-12-22T08:20:00;6.50;84.50
53643;DHT22;39546;45.534;12.048;2023-12-22T08:26:01;6.40;83.60
53643;DHT22;39546;45.534;12.048;2023-12-22T08:32:03;6.10;84.10
53643;DHT22;39546;45.534;12.048;2023-12-22T08:38:05;5.90;84.10
53643;DHT22;39546;45.534;12.048;2023-12-22T08:44:07;6.20;84.40
53643;DHT22;39546;45.534;12.048;2023-12-22T08:50:09;6.20;84.50
53643;DHT22;39546;45.534;12.048;2023-12-22T08:56:13;6.70;85.50
53643;DHT22;39546;45.534;12.048;2023-12-22T09:02:16;6.80;85.60
53643;DHT22;39546;45.534;12.048;2023-12-22T09:08:17;7.00;85.80
53643;DHT22;39546;45.534;12.048;2023-12-22T09:14:19;7.20;85.70
53643;DHT22;39546;45.534;12.048;2023-12-22T09:20:22;7.40;85.70
53643;DHT22;39546;45.534;12.048;2023-12-22T09:26:24;7.30;85.40
53643;DHT22;39546;45.534;12.048;2023-12-22T09:32:26;7.30;85.40
53643;DHT22;39546;45.534;12.048;2023-12-22T09:38:28;7.20;85.90
53643;DHT22;39546;45.534;12.048;2023-12-22T09:44:32;7.20;85.90
53643;DHT22;39546;45.534;12.048;2023-12-22T09:50:36;7.20;85.80
53643;DHT22;39546;45.534;12.048;2023-12-22T09:56:39;7.20;86.20
53643;DHT22;39546;45.534;12.048;2023-12-22T10:02:44;7.40;86.90
53643;DHT22;39546;45.534;12.048;2023-12-22T10:08:51;7.60;86.60
53643;DHT22;39546;45.534;12.048;2023-12-22T10:14:54;7.60;86.50
53643;DHT22;39546;45.534;12.048;2023-12-22T10:20:56;7.70;86.70
53643;DHT22;39546;45.534;12.048;2023-12-22T10:26:58;7.90;86.60
53643;DHT22;39546;45.534;12.048;2023-12-22T10:33:04;7.90;86.80
53643;DHT22;39546;45.534;12.048;2023-12-22T10:39:06;8.00;86.60
53643;DHT22;39546;45.534;12.048;2023-12-22T10:45:09;8.30;86.50
53643;DHT22;39546;45.534;12.048;2023-12-22T10:51:11;8.30;85.50
53643;DHT22;39546;45.534;12.048;2023-12-22T10:57:13;8.50;86.20
53643;DHT22;39546;45.534;12.048;2023-12-22T11:03:17;8.70;85.90
53643;DHT22;39546;45.534;12.048;2023-12-22T11:09:24;8.80;85.90
53643;DHT22;39546;45.534;12.048;2023-12-22T11:15:28;9.10;85.70
53643;DHT22;39546;45.534;12.048;2023-12-22T11:21:30;9.40;85.50
53643;DHT22;39546;45.534;12.048;2023-12-22T11:27:33;9.60;85.40
53643;DHT22;39546;45.534;12.048;2023-12-22T11:33:37;9.70;85.00
53643;DHT22;39546;45.534;12.048;2023-12-22T11:39:45;9.80;84.70
53643;DHT22;39546;45.534;12.048;2023-12-22T11:45:49;10.00;84.60
53643;DHT22;39546;45.534;12.048;2023-12-22T11:51:51;10.10;84.40
53643;DHT22;39546;45.534;12.048;2023-12-22T11:57:53;10.20;84.60
53643;DHT22;39546;45.534;12.048;2023-12-22T12:04:02;10.30;84.70
53643;DHT22;39546;45.534;12.048;2023-12-22T12:10:06;10.40;84.60
53643;DHT22;39546;45.534;12.048;2023-12-22T12:16:08;10.50;84.60
53643;DHT22;39546;45.534;12.048;2023-12-22T12:22:13;10.50;84.90
53643;DHT22;39546;45.534;12.048;2023-12-22T12:28:15;10.50;85.20
53643;DHT22;39546;45.534;12.048;2023-12-22T12:34:23;10.60;85.40
53643;DHT22;39546;45.534;12.048;2023-12-22T12:40:24;10.60;85.20
53643;DHT22;39546;45.534;12.048;2023-12-22T12:46:35;10.70;85.00
53643;DHT22;39546;45.534;12.048;2023-12-22T12:52:37;10.70;84.90
53643;DHT22;39546;45.534;12.048;2023-12-22T12:58:39;10.60;85.10
53643;DHT22;39546;45.534;12.048;2023-12-22T13:04:42;10.70;85.10
53643;DHT22;39546;45.534;12.048;2023-12-22T13:10:44;10.80;85.00
53643;DHT22;39546;45.534;12.048;2023-12-22T13:16:46;10.90;84.80
53643;DHT22;39546;45.534;12.048;2023-12-22T13:22:48;11.00;84.80
53643;DHT22;39546;45.534;12.048;2023-12-22T13:28:57;11.10;84.80
53643;DHT22;39546;45.534;12.048;2023-12-22T13:34:59;11.10;84.80
53643;DHT22;39546;45.534;12.048;2023-12-22T13:41:04;11.10;84.30
53643;DHT22;39546;45.534;12.048;2023-12-22T13:47:06;11.10;85.40
53643;DHT22;39546;45.534;12.048;2023-12-22T13:53:08;11.20;85.50
53643;DHT22;39546;45.534;12.048;2023-12-22T13:59:10;11.30;85.30
53643;DHT22;39546;45.534;12.048;2023-12-22T14:05:12;11.40;85.40
53643;DHT22;39546;45.534;12.048;2023-12-22T14:11:14;11.00;84.70
53643;DHT22;39546;45.534;12.048;2023-12-22T14:17:17;10.80;85.70
53643;DHT22;39546;45.534;12.048;2023-12-22T14:23:18;11.00;86.20
53643;DHT22;39546;45.534;12.048;2023-12-22T14:29:20;11.60;85.60
53643;DHT22;39546;45.534;12.048;2023-12-22T14:35:24;11.90;84.60
53643;DHT22;39546;45.534;12.048;2023-12-22T14:41:25;11.80;85.40
53643;DHT22;39546;45.534;12.048;2023-12-22T14:47:27;11.50;85.80
53643;DHT22;39546;45.534;12.048;2023-12-22T14:53:29;11.20;86.40
53643;DHT22;39546;45.534;12.048;2023-12-22T14:59:30;11.10;86.90
53643;DHT22;39546;45.534;12.048;2023-12-22T15:05:32;10.80;86.90
53643;DHT22;39546;45.534;12.048;2023-12-22T15:11:39;10.60;87.50
53643;DHT22;39546;45.534;12.048;2023-12-22T15:17:41;10.50;87.50
53643;DHT22;39546;45.534;12.048;2023-12-22T15:23:43;10.40;87.60
53643;DHT22;39546;45.534;12.048;2023-12-22T15:29:46;10.30;88.00
53643;DHT22;39546;45.534;12.048;2023-12-22T15:35:54;10.20;87.90
53643;DHT22;39546;45.534;12.048;2023-12-22T15:41:56;10.10;88.00
53643;DHT22;39546;45.534;12.048;2023-12-22T15:47:57;9.90;88.10
53643;DHT22;39546;45.534;12.048;2023-12-22T15:53:59;9.80;88.10
53643;DHT22;39546;45.534;12.048;2023-12-22T16:00:01;9.90;88.50
53643;DHT22;39546;45.534;12.048;2023-12-22T16:06:11;9.80;87.60
53643;DHT22;39546;45.534;12.048;2023-12-22T16:12:12;9.70;88.20
53643;DHT22;39546;45.534;12.048;2023-12-22T16:18:14;9.80;88.00
53643;DHT22;39546;45.534;12.048;2023-12-22T16:24:16;9.50;88.00
53643;DHT22;39546;45.534;12.048;2023-12-22T16:30:18;9.50;88.10
53643;DHT22;39546;45.534;12.048;2023-12-22T16:36:19;9.60;88.00
53643;DHT22;39546;45.534;12.048;2023-12-22T16:42:22;9.50;87.80
53643;DHT22;39546;45.534;12.048;2023-12-22T16:48:25;9.40;87.60
53643;DHT22;39546;45.534;12.048;2023-12-22T16:54:27;9.60;87.70
53643;DHT22;39546;45.534;12.048;2023-12-22T17:00:28;9.50;87.40
53643;DHT22;39546;45.534;12.048;2023-12-22T17:06:30;9.60;87.60
53643;DHT22;39546;45.534;12.048;2023-12-22T17:12:31;9.70;87.30
53643;DHT22;39546;45.534;12.048;2023-12-22T17:18:34;9.70;87.40
53643;DHT22;39546;45.534;12.048;2023-12-22T17:24:37;9.70;87.10
53643;DHT22;39546;45.534;12.048;2023-12-22T17:30:44;9.50;87.10
53643;DHT22;39546;45.534;12.048;2023-12-22T17:36:46;9.60;87.00
53643;DHT22;39546;45.534;12.048;2023-12-22T17:42:50;9.50;87.00
53643;DHT22;39546;45.534;12.048;2023-12-22T17:48:51;9.50;87.10
53643;DHT22;39546;45.534;12.048;2023-12-22T17:54:56;9.40;86.90
53643;DHT22;39546;45.534;12.048;2023-12-22T18:01:10;9.30;87.10
53643;DHT22;39546;45.534;12.048;2023-12-22T18:07:12;9.40;87.20
53643;DHT22;39546;45.534;12.048;2023-12-22T18:13:14;9.30;86.80
53643;DHT22;39546;45.534;12.048;2023-12-22T18:19:34;9.30;87.10
53643;DHT22;39546;45.534;12.048;2023-12-22T18:25:37;8.90;86.70
53643;DHT22;39546;45.534;12.048;2023-12-22T18:31:41;9.00;87.00
53643;DHT22;39546;45.534;12.048;2023-12-22T18:37:42;9.00;86.70
53643;DHT22;39546;45.534;12.048;2023-12-22T18:43:44;9.10;86.50
53643;DHT22;39546;45.534;12.048;2023-12-22T18:49:46;8.90;86.20
53643;DHT22;39546;45.534;12.048;2023-12-22T18:55:48;8.60;85.80
53643;DHT22;39546;45.534;12.048;2023-12-22T19:01:49;8.70;86.60
53643;DHT22;39546;45.534;12.048;2023-12-22T19:07:51;8.60;86.40
53643;DHT22;39546;45.534;12.048;2023-12-22T19:14:07;8.50;86.10
53643;DHT22;39546;45.534;12.048;2023-12-22T19:20:10;8.30;86.70
53643;DHT22;39546;45.534;12.048;2023-12-22T19:26:12;8.30;86.50
53643;DHT22;39546;45.534;12.048;2023-12-22T19:32:21;8.20;86.80
53643;DHT22;39546;45.534;12.048;2023-12-22T19:38:23;8.10;86.70
53643;DHT22;39546;45.534;12.048;2023-12-22T19:44:24;8.40;86.50
53643;DHT22;39546;45.534;12.048;2023-12-22T19:50:26;8.40;86.00
53643;DHT22;39546;45.534;12.048;2023-12-22T19:56:30;8.10;86.10
53643;DHT22;39546;45.534;12.048;2023-12-22T20:02:31;7.90;86.50
53643;DHT22;39546;45.534;12.048;2023-12-22T20:08:34;7.90;86.20
53643;DHT22;39546;45.534;12.048;2023-12-22T20:14:36;7.90;86.50
53643;DHT22;39546;45.534;12.048;2023-12-22T20:20:38;7.70;86.00
53643;DHT22;39546;45.534;12.048;2023-12-22T20:26:39;7.60;86.40
53643;DHT22;39546;45.534;12.048;2023-12-22T20:32:41;7.70;86.10
53643;DHT22;39546;45.534;12.048;2023-12-22T20:38:42;7.90;86.00
53643;DHT22;39546;45.534;12.048;2023-12-22T20:44:44;8.00;85.50
53643;DHT22;39546;45.534;12.048;2023-12-22T20:50:46;7.90;85.80
53643;DHT22;39546;45.534;12.048;2023-12-22T20:56:48;7.70;85.90
53643;DHT22;39546;45.534;12.048;2023-12-22T21:02:49;7.60;85.90
53643;DHT22;39546;45.534;12.048;2023-12-22T21:08:52;7.70;85.70
53643;DHT22;39546;45.534;12.048;2023-12-22T21:14:53;7.70;85.70
53643;DHT22;39546;45.534;12.048;2023-12-22T21:20:55;7.80;85.60
53643;DHT22;39546;45.534;12.048;2023-12-22T21:26:57;7.90;85.30
53643;DHT22;39546;45.534;12.048;2023-12-22T21:33:13;8.00;84.70
53643;DHT22;39546;45.534;12.048;2023-12-22T21:39:15;8.00;84.90
53643;DHT22;39546;45.534;12.048;2023-12-22T21:45:17;7.90;84.90
53643;DHT22;39546;45.534;12.048;2023-12-22T21:51:23;8.00;85.00
53643;DHT22;39546;45.534;12.048;2023-12-22T21:57:32;8.10;84.90
53643;DHT22;39546;45.534;12.048;2023-12-22T22:03:36;7.80;84.60
53643;DHT22;39546;45.534;12.048;2023-12-22T22:09:39;7.70;84.80
53643;DHT22;39546;45.534;12.048;2023-12-22T22:15:41;7.30;84.90
53643;DHT22;39546;45.534;12.048;2023-12-22T22:21:43;7.40;85.00
53643;DHT22;39546;45.534;12.048;2023-12-22T22:27:45;7.20;85.10
53643;DHT22;39546;45.534;12.048;2023-12-22T22:33:47;7.30;85.00
53643;DHT22;39546;45.534;12.048;2023-12-22T22:39:48;7.20;84.80
53643;DHT22;39546;45.534;12.048;2023-12-22T22:45:50;7.30;84.70
53643;DHT22;39546;45.534;12.048;2023-12-22T22:52:05;7.20;84.40
53643;DHT22;39546;45.534;12.048;2023-12-22T22:58:07;7.00;84.40
53643;DHT22;39546;45.534;12.048;2023-12-22T23:04:31;7.10;84.50
53643;DHT22;39546;45.534;12.048;2023-12-22T23:10:33;7.10;84.10
53643;DHT22;39546;45.534;12.048;2023-12-22T23:16:35;6.60;84.40
53643;DHT22;39546;45.534;12.048;2023-12-22T23:22:37;6.50;84.80
53643;DHT22;39546;45.534;12.048;2023-12-22T23:28:40;6.30;84.90
53643;DHT22;39546;45.534;12.048;2023-12-22T23:34:44;6.30;85.30
53643;DHT22;39546;45.534;12.048;2023-12-22T23:40:46;6.20;85.10
53643;DHT22;39546;45.534;12.048;2023-12-22T23:46:48;6.20;85.60
53643;DHT22;39546;45.534;12.048;2023-12-22T23:53:18;6.20;85.20
53643;DHT22;39546;45.534;12.048;2023-12-22T23:59:20;6.10;85.60
